Terminal Aerodrome Forecast
Issued by NWS

Home | Current Version | Previous Version | Text Only | Print | Product List | Glossary On
Versions: 1 2 3 4 5 6 7 8 9 10 11 12 13 14 15 16 17 18 19 20 21 22 23 24 25 26 27 28 29 30 31 32 33 34 35 36 37
000
FTUS44 KHGX 181341 AAA
TAFLBX
TAF AMD
KLBX 181341Z 1814/1912 12005KT P6SM VCSH BKN035 BKN045 OVC060
      TEMPO 1814/1818 2SM SHRA BR BKN007
     FM181800 19007KT P6SM VCSH SCT010 BKN020
     FM190100 07005KT 6SM BR VCSH SCT009 BKN012
     FM190600 07006KT 4SM BR VCSH OVC009=

USA.gov is the U.S. government's official web portal to all federal, state and local government web resources and services.